CWP weather

Campo San Pablo Airstrip
Empalme, Sonora, Mexico

Public forecast

Using degrees Celsius for public forecast. Weather courtesy of forecast.io.

Closest aviation weather report (METAR) to Campo San Pablo Airstrip

Closest report is General José María Yáñez International Airport, 14.3 nm (26.6 km) W. Retrieved 2020/05/26 15:40 UTC (17 minutes ago):

MMGM 261540Z 00000KT 10SM SCT200 30/18 A2980 RMK 8/002

Closest aviation forecast (TAF) to Campo San Pablo Airstrip

Forecast is more than 6 hours old.

Closest forecast is General José María Yáñez International Airport, 14.3 nm (26.6 km) W. Retrieved 2020/05/26 06:53 UTC (9 hours ago):

TAF MMGM 260449Z 2606/2706 00000KT P6SM SCT200 FM261800 20010KT P6SM BKN200 BECMG 2700/2701 24005KT